sensor_id;sensor_type;location;lat;lon;timestamp;P1;durP1;ratioP1;P2;durP2;ratioP2
63818;SDS011;49970;54.976;73.248;2022-08-16T00:00:20;8.27;;;2.63;;
63818;SDS011;49970;54.976;73.248;2022-08-16T00:02:49;8.98;;;3.00;;
63818;SDS011;49970;54.976;73.248;2022-08-16T00:05:18;6.93;;;3.30;;
63818;SDS011;49970;54.976;73.248;2022-08-16T00:07:46;11.75;;;3.10;;
63818;SDS011;49970;54.976;73.248;2022-08-16T00:10:13;8.57;;;2.60;;
63818;SDS011;49970;54.976;73.248;2022-08-16T00:12:40;5.68;;;3.10;;
63818;SDS011;49970;54.976;73.248;2022-08-16T00:16:30;14.00;;;3.03;;
63818;SDS011;49970;54.976;73.248;2022-08-16T00:19:08;4.90;;;2.80;;
63818;SDS011;49970;54.976;73.248;2022-08-16T00:21:34;11.88;;;3.03;;
63818;SDS011;49970;54.976;73.248;2022-08-16T00:24:11;6.75;;;3.22;;
63818;SDS011;49970;54.976;73.248;2022-08-16T00:29:15;23.83;;;4.10;;
63818;SDS011;49970;54.976;73.248;2022-08-16T00:31:51;10.57;;;3.70;;
63818;SDS011;49970;54.976;73.248;2022-08-16T00:34:18;6.38;;;3.70;;
63818;SDS011;49970;54.976;73.248;2022-08-16T00:36:45;17.02;;;3.97;;
63818;SDS011;49970;54.976;73.248;2022-08-16T00:44:08;13.25;;;3.85;;
63818;SDS011;49970;54.976;73.248;2022-08-16T00:47:53;7.72;;;4.05;;
63818;SDS011;49970;54.976;73.248;2022-08-16T00:50:23;12.98;;;4.43;;
63818;SDS011;49970;54.976;73.248;2022-08-16T00:54:36;18.48;;;4.72;;
63818;SDS011;49970;54.976;73.248;2022-08-16T00:58:28;11.55;;;4.53;;
63818;SDS011;49970;54.976;73.248;2022-08-16T01:00:55;12.55;;;4.32;;
63818;SDS011;49970;54.976;73.248;2022-08-16T01:03:23;11.68;;;4.40;;
63818;SDS011;49970;54.976;73.248;2022-08-16T01:05:59;11.75;;;4.78;;
63818;SDS011;49970;54.976;73.248;2022-08-16T01:08:26;11.38;;;4.05;;
63818;SDS011;49970;54.976;73.248;2022-08-16T01:10:58;13.93;;;4.40;;
63818;SDS011;49970;54.976;73.248;2022-08-16T01:13:35;15.75;;;4.50;;
63818;SDS011;49970;54.976;73.248;2022-08-16T01:16:15;12.00;;;3.63;;
63818;SDS011;49970;54.976;73.248;2022-08-16T01:19:09;9.38;;;3.85;;
63818;SDS011;49970;54.976;73.248;2022-08-16T01:22:35;19.10;;;3.85;;
63818;SDS011;49970;54.976;73.248;2022-08-16T01:25:13;7.25;;;3.70;;
63818;SDS011;49970;54.976;73.248;2022-08-16T01:27:47;13.38;;;3.40;;
63818;SDS011;49970;54.976;73.248;2022-08-16T01:30:24;8.98;;;3.50;;
63818;SDS011;49970;54.976;73.248;2022-08-16T01:32:58;10.80;;;3.88;;
63818;SDS011;49970;54.976;73.248;2022-08-16T01:35:28;12.25;;;3.65;;
63818;SDS011;49970;54.976;73.248;2022-08-16T01:37:56;13.25;;;3.50;;
63818;SDS011;49970;54.976;73.248;2022-08-16T01:41:05;11.40;;;3.38;;
63818;SDS011;49970;54.976;73.248;2022-08-16T01:43:42;11.30;;;3.85;;
63818;SDS011;49970;54.976;73.248;2022-08-16T01:51:51;11.70;;;3.63;;
63818;SDS011;49970;54.976;73.248;2022-08-16T01:54:50;17.45;;;4.30;;
63818;SDS011;49970;54.976;73.248;2022-08-16T01:57:16;190.20;;;12.00;;
63818;SDS011;49970;54.976;73.248;2022-08-16T01:59:42;14.55;;;3.85;;
63818;SDS011;49970;54.976;73.248;2022-08-16T02:02:13;14.68;;;4.30;;
63818;SDS011;49970;54.976;73.248;2022-08-16T02:04:39;21.85;;;4.70;;
63818;SDS011;49970;54.976;73.248;2022-08-16T02:07:06;12.60;;;4.35;;
63818;SDS011;49970;54.976;73.248;2022-08-16T02:09:46;10.82;;;4.07;;
63818;SDS011;49970;54.976;73.248;2022-08-16T02:12:13;13.85;;;3.65;;
63818;SDS011;49970;54.976;73.248;2022-08-16T02:14:41;14.85;;;3.83;;
63818;SDS011;49970;54.976;73.248;2022-08-16T02:17:12;23.20;;;5.22;;
63818;SDS011;49970;54.976;73.248;2022-08-16T02:19:42;16.05;;;4.50;;
63818;SDS011;49970;54.976;73.248;2022-08-16T02:22:12;14.52;;;4.72;;
63818;SDS011;49970;54.976;73.248;2022-08-16T02:24:41;19.10;;;4.93;;
63818;SDS011;49970;54.976;73.248;2022-08-16T02:27:08;19.98;;;4.90;;
63818;SDS011;49970;54.976;73.248;2022-08-16T02:29:35;15.15;;;5.05;;
63818;SDS011;49970;54.976;73.248;2022-08-16T02:32:03;21.67;;;4.78;;
63818;SDS011;49970;54.976;73.248;2022-08-16T02:34:30;21.92;;;4.70;;
63818;SDS011;49970;54.976;73.248;2022-08-16T02:36:56;22.08;;;5.43;;
63818;SDS011;49970;54.976;73.248;2022-08-16T02:39:23;26.42;;;4.75;;
63818;SDS011;49970;54.976;73.248;2022-08-16T02:41:51;15.95;;;5.97;;
63818;SDS011;49970;54.976;73.248;2022-08-16T02:44:18;30.92;;;5.55;;
63818;SDS011;49970;54.976;73.248;2022-08-16T02:46:47;14.55;;;5.20;;
63818;SDS011;49970;54.976;73.248;2022-08-16T02:49:14;33.28;;;5.07;;
63818;SDS011;49970;54.976;73.248;2022-08-16T02:51:41;19.42;;;4.13;;
63818;SDS011;49970;54.976;73.248;2022-08-16T02:54:08;10.90;;;4.68;;
63818;SDS011;49970;54.976;73.248;2022-08-16T02:56:36;28.20;;;5.88;;
63818;SDS011;49970;54.976;73.248;2022-08-16T02:59:03;12.63;;;3.80;;
63818;SDS011;49970;54.976;73.248;2022-08-16T03:01:30;11.15;;;2.83;;
63818;SDS011;49970;54.976;73.248;2022-08-16T03:04:01;8.75;;;2.53;;
63818;SDS011;49970;54.976;73.248;2022-08-16T03:06:30;22.67;;;3.00;;
63818;SDS011;49970;54.976;73.248;2022-08-16T03:09:07;18.50;;;2.50;;
63818;SDS011;49970;54.976;73.248;2022-08-16T03:11:37;19.15;;;2.97;;
63818;SDS011;49970;54.976;73.248;2022-08-16T03:14:08;14.35;;;2.05;;
63818;SDS011;49970;54.976;73.248;2022-08-16T03:16:35;27.05;;;2.22;;
63818;SDS011;49970;54.976;73.248;2022-08-16T03:19:01;8.35;;;1.70;;
63818;SDS011;49970;54.976;73.248;2022-08-16T03:21:29;11.63;;;1.90;;
63818;SDS011;49970;54.976;73.248;2022-08-16T03:23:59;6.25;;;1.60;;
63818;SDS011;49970;54.976;73.248;2022-08-16T03:26:26;13.18;;;2.17;;
63818;SDS011;49970;54.976;73.248;2022-08-16T03:28:52;39.17;;;3.13;;
63818;SDS011;49970;54.976;73.248;2022-08-16T03:32:00;15.85;;;2.10;;
63818;SDS011;49970;54.976;73.248;2022-08-16T03:34:28;4.05;;;1.63;;
63818;SDS011;49970;54.976;73.248;2022-08-16T03:37:03;10.13;;;1.90;;
63818;SDS011;49970;54.976;73.248;2022-08-16T03:39:30;18.13;;;2.53;;
63818;SDS011;49970;54.976;73.248;2022-08-16T03:41:56;9.10;;;2.10;;
63818;SDS011;49970;54.976;73.248;2022-08-16T03:44:23;3.75;;;1.67;;
63818;SDS011;49970;54.976;73.248;2022-08-16T03:46:55;17.20;;;2.30;;
63818;SDS011;49970;54.976;73.248;2022-08-16T03:49:27;12.32;;;2.33;;
63818;SDS011;49970;54.976;73.248;2022-08-16T03:51:55;23.83;;;2.13;;
63818;SDS011;49970;54.976;73.248;2022-08-16T03:54:28;11.45;;;1.90;;
63818;SDS011;49970;54.976;73.248;2022-08-16T03:56:54;23.83;;;2.40;;
63818;SDS011;49970;54.976;73.248;2022-08-16T03:59:20;21.63;;;2.58;;
63818;SDS011;49970;54.976;73.248;2022-08-16T04:01:49;14.60;;;2.17;;
63818;SDS011;49970;54.976;73.248;2022-08-16T04:04:15;6.60;;;1.80;;
63818;SDS011;49970;54.976;73.248;2022-08-16T04:06:43;5.00;;;1.95;;
63818;SDS011;49970;54.976;73.248;2022-08-16T04:09:09;15.65;;;1.38;;
63818;SDS011;49970;54.976;73.248;2022-08-16T04:11:37;3.25;;;1.33;;
63818;SDS011;49970;54.976;73.248;2022-08-16T04:14:05;2.15;;;0.93;;
63818;SDS011;49970;54.976;73.248;2022-08-16T04:16:34;14.30;;;1.30;;
63818;SDS011;49970;54.976;73.248;2022-08-16T04:19:27;2.22;;;1.05;;
63818;SDS011;49970;54.976;73.248;2022-08-16T04:21:54;10.18;;;1.20;;
63818;SDS011;49970;54.976;73.248;2022-08-16T04:24:24;15.60;;;1.27;;
63818;SDS011;49970;54.976;73.248;2022-08-16T04:28:19;3.75;;;1.13;;
63818;SDS011;49970;54.976;73.248;2022-08-16T04:32:12;4.97;;;0.90;;
63818;SDS011;49970;54.976;73.248;2022-08-16T04:36:03;4.10;;;0.90;;
63818;SDS011;49970;54.976;73.248;2022-08-16T04:38:34;5.80;;;1.13;;
63818;SDS011;49970;54.976;73.248;2022-08-16T04:41:01;5.38;;;1.40;;
63818;SDS011;49970;54.976;73.248;2022-08-16T04:43:28;9.38;;;1.00;;
63818;SDS011;49970;54.976;73.248;2022-08-16T04:45:59;7.93;;;1.20;;
63818;SDS011;49970;54.976;73.248;2022-08-16T04:48:25;15.23;;;1.30;;
63818;SDS011;49970;54.976;73.248;2022-08-16T04:50:56;9.57;;;0.95;;
63818;SDS011;49970;54.976;73.248;2022-08-16T04:53:35;10.30;;;0.95;;
63818;SDS011;49970;54.976;73.248;2022-08-16T04:56:06;2.75;;;0.70;;
63818;SDS011;49970;54.976;73.248;2022-08-16T04:58:33;7.20;;;1.10;;
63818;SDS011;49970;54.976;73.248;2022-08-16T05:01:01;3.70;;;0.63;;
63818;SDS011;49970;54.976;73.248;2022-08-16T05:03:29;3.33;;;0.63;;
63818;SDS011;49970;54.976;73.248;2022-08-16T05:05:56;13.30;;;0.60;;
63818;SDS011;49970;54.976;73.248;2022-08-16T05:08:35;4.50;;;0.77;;
63818;SDS011;49970;54.976;73.248;2022-08-16T05:11:13;5.72;;;0.60;;
63818;SDS011;49970;54.976;73.248;2022-08-16T05:13:42;1.10;;;0.50;;
63818;SDS011;49970;54.976;73.248;2022-08-16T05:16:17;1.75;;;0.40;;
63818;SDS011;49970;54.976;73.248;2022-08-16T05:18:50;1.02;;;0.88;;
63818;SDS011;49970;54.976;73.248;2022-08-16T05:21:19;2.47;;;0.70;;
63818;SDS011;49970;54.976;73.248;2022-08-16T05:23:51;2.60;;;0.80;;
63818;SDS011;49970;54.976;73.248;2022-08-16T05:26:18;1.98;;;0.90;;
63818;SDS011;49970;54.976;73.248;2022-08-16T05:28:44;4.53;;;0.80;;
63818;SDS011;49970;54.976;73.248;2022-08-16T05:31:11;23.77;;;1.45;;
63818;SDS011;49970;54.976;73.248;2022-08-16T05:33:37;12.82;;;1.27;;
63818;SDS011;49970;54.976;73.248;2022-08-16T05:36:04;4.00;;;1.08;;
63818;SDS011;49970;54.976;73.248;2022-08-16T05:38:39;5.90;;;1.65;;
63818;SDS011;49970;54.976;73.248;2022-08-16T05:41:19;12.23;;;1.02;;
63818;SDS011;49970;54.976;73.248;2022-08-16T05:43:45;6.28;;;0.80;;
63818;SDS011;49970;54.976;73.248;2022-08-16T05:46:22;2.08;;;0.98;;
63818;SDS011;49970;54.976;73.248;2022-08-16T05:48:48;6.55;;;0.80;;
63818;SDS011;49970;54.976;73.248;2022-08-16T05:51:14;21.63;;;1.35;;
63818;SDS011;49970;54.976;73.248;2022-08-16T05:53:40;6.90;;;1.13;;
63818;SDS011;49970;54.976;73.248;2022-08-16T05:56:13;7.78;;;0.90;;
63818;SDS011;49970;54.976;73.248;2022-08-16T05:58:48;8.65;;;0.82;;
63818;SDS011;49970;54.976;73.248;2022-08-16T06:01:15;10.18;;;0.80;;
63818;SDS011;49970;54.976;73.248;2022-08-16T06:03:45;2.13;;;0.70;;
63818;SDS011;49970;54.976;73.248;2022-08-16T06:06:27;5.05;;;0.60;;
63818;SDS011;49970;54.976;73.248;2022-08-16T06:08:53;3.03;;;1.08;;
63818;SDS011;49970;54.976;73.248;2022-08-16T06:11:20;2.50;;;0.80;;
63818;SDS011;49970;54.976;73.248;2022-08-16T06:13:52;4.90;;;1.07;;
63818;SDS011;49970;54.976;73.248;2022-08-16T06:16:30;2.80;;;0.70;;
63818;SDS011;49970;54.976;73.248;2022-08-16T06:18:57;2.53;;;0.90;;
63818;SDS011;49970;54.976;73.248;2022-08-16T06:21:24;8.95;;;0.90;;
63818;SDS011;49970;54.976;73.248;2022-08-16T06:23:57;4.63;;;1.00;;
63818;SDS011;49970;54.976;73.248;2022-08-16T06:26:24;2.33;;;1.10;;
63818;SDS011;49970;54.976;73.248;2022-08-16T06:29:00;6.40;;;0.90;;
63818;SDS011;49970;54.976;73.248;2022-08-16T06:31:33;8.60;;;1.10;;
63818;SDS011;49970;54.976;73.248;2022-08-16T06:34:00;6.50;;;1.15;;
63818;SDS011;49970;54.976;73.248;2022-08-16T06:36:31;4.70;;;1.08;;
63818;SDS011;49970;54.976;73.248;2022-08-16T06:39:06;6.47;;;0.90;;
63818;SDS011;49970;54.976;73.248;2022-08-16T06:42:08;7.85;;;1.00;;
63818;SDS011;49970;54.976;73.248;2022-08-16T06:45:03;6.35;;;1.10;;
63818;SDS011;49970;54.976;73.248;2022-08-16T06:47:46;6.78;;;0.80;;
63818;SDS011;49970;54.976;73.248;2022-08-16T06:50:14;1.45;;;0.80;;
63818;SDS011;49970;54.976;73.248;2022-08-16T06:52:44;4.72;;;0.90;;
63818;SDS011;49970;54.976;73.248;2022-08-16T06:55:14;1.45;;;0.77;;
63818;SDS011;49970;54.976;73.248;2022-08-16T06:57:50;5.88;;;1.23;;
63818;SDS011;49970;54.976;73.248;2022-08-16T07:00:17;7.30;;;1.27;;
63818;SDS011;49970;54.976;73.248;2022-08-16T07:02:53;4.20;;;1.08;;
63818;SDS011;49970;54.976;73.248;2022-08-16T07:05:20;6.00;;;1.02;;
63818;SDS011;49970;54.976;73.248;2022-08-16T07:08:01;4.28;;;1.00;;
63818;SDS011;49970;54.976;73.248;2022-08-16T07:10:35;11.77;;;1.05;;
63818;SDS011;49970;54.976;73.248;2022-08-16T07:13:03;5.72;;;1.13;;
63818;SDS011;49970;54.976;73.248;2022-08-16T07:15:31;9.38;;;1.10;;
63818;SDS011;49970;54.976;73.248;2022-08-16T07:17:58;3.92;;;1.05;;
63818;SDS011;49970;54.976;73.248;2022-08-16T07:20:37;1.98;;;1.10;;
63818;SDS011;49970;54.976;73.248;2022-08-16T07:23:04;4.97;;;1.00;;
63818;SDS011;49970;54.976;73.248;2022-08-16T07:25:47;1.45;;;0.70;;
63818;SDS011;49970;54.976;73.248;2022-08-16T07:28:15;1.17;;;0.93;;
63818;SDS011;49970;54.976;73.248;2022-08-16T07:30:44;4.10;;;1.00;;
63818;SDS011;49970;54.976;73.248;2022-08-16T07:33:19;2.50;;;1.23;;
63818;SDS011;49970;54.976;73.248;2022-08-16T07:35:46;4.40;;;1.13;;
63818;SDS011;49970;54.976;73.248;2022-08-16T07:38:17;23.23;;;1.38;;
63818;SDS011;49970;54.976;73.248;2022-08-16T07:40:56;1.80;;;1.02;;
63818;SDS011;49970;54.976;73.248;2022-08-16T07:43:23;10.48;;;1.00;;
63818;SDS011;49970;54.976;73.248;2022-08-16T07:45:58;3.30;;;1.10;;
63818;SDS011;49970;54.976;73.248;2022-08-16T07:48:25;4.90;;;1.10;;
63818;SDS011;49970;54.976;73.248;2022-08-16T07:50:54;4.65;;;1.10;;
63818;SDS011;49970;54.976;73.248;2022-08-16T07:53:21;6.60;;;1.10;;
63818;SDS011;49970;54.976;73.248;2022-08-16T07:55:48;5.22;;;1.30;;
63818;SDS011;49970;54.976;73.248;2022-08-16T07:58:26;10.32;;;1.02;;
63818;SDS011;49970;54.976;73.248;2022-08-16T08:00:58;2.60;;;0.90;;
63818;SDS011;49970;54.976;73.248;2022-08-16T08:03:26;3.05;;;1.05;;
63818;SDS011;49970;54.976;73.248;2022-08-16T08:06:06;2.75;;;1.02;;
63818;SDS011;49970;54.976;73.248;2022-08-16T08:08:43;8.77;;;1.60;;
63818;SDS011;49970;54.976;73.248;2022-08-16T08:11:09;7.72;;;1.42;;
63818;SDS011;49970;54.976;73.248;2022-08-16T08:13:36;2.70;;;1.20;;
63818;SDS011;49970;54.976;73.248;2022-08-16T08:16:02;2.30;;;1.13;;
63818;SDS011;49970;54.976;73.248;2022-08-16T08:19:58;5.05;;;1.35;;
63818;SDS011;49970;54.976;73.248;2022-08-16T08:22:26;10.98;;;1.77;;
63818;SDS011;49970;54.976;73.248;2022-08-16T08:25:06;10.65;;;1.20;;
63818;SDS011;49970;54.976;73.248;2022-08-16T08:27:32;3.17;;;1.02;;
63818;SDS011;49970;54.976;73.248;2022-08-16T08:30:00;27.10;;;2.15;;
63818;SDS011;49970;54.976;73.248;2022-08-16T08:32:31;1.63;;;1.23;;
63818;SDS011;49970;54.976;73.248;2022-08-16T08:35:02;6.53;;;1.30;;
63818;SDS011;49970;54.976;73.248;2022-08-16T08:37:32;2.45;;;1.35;;
63818;SDS011;49970;54.976;73.248;2022-08-16T08:40:04;3.88;;;1.48;;
63818;SDS011;49970;54.976;73.248;2022-08-16T08:43:55;7.32;;;1.35;;
63818;SDS011;49970;54.976;73.248;2022-08-16T08:48:10;9.88;;;1.50;;
63818;SDS011;49970;54.976;73.248;2022-08-16T08:52:03;6.18;;;1.00;;
63818;SDS011;49970;54.976;73.248;2022-08-16T08:56:19;8.27;;;1.08;;
63818;SDS011;49970;54.976;73.248;2022-08-16T09:00:28;6.47;;;1.17;;
63818;SDS011;49970;54.976;73.248;2022-08-16T09:04:17;8.00;;;1.95;;
63818;SDS011;49970;54.976;73.248;2022-08-16T09:08:11;3.17;;;1.20;;
63818;SDS011;49970;54.976;73.248;2022-08-16T09:12:04;5.22;;;1.30;;
63818;SDS011;49970;54.976;73.248;2022-08-16T09:16:02;3.47;;;1.00;;
63818;SDS011;49970;54.976;73.248;2022-08-16T09:19:50;5.93;;;1.48;;
63818;SDS011;49970;54.976;73.248;2022-08-16T09:23:41;16.85;;;1.38;;
63818;SDS011;49970;54.976;73.248;2022-08-16T09:26:09;6.93;;;1.27;;
63818;SDS011;49970;54.976;73.248;2022-08-16T09:28:46;5.72;;;1.45;;
63818;SDS011;49970;54.976;73.248;2022-08-16T09:31:20;2.90;;;1.45;;
63818;SDS011;49970;54.976;73.248;2022-08-16T09:33:46;1.85;;;1.20;;
63818;SDS011;49970;54.976;73.248;2022-08-16T09:36:13;7.25;;;1.30;;
63818;SDS011;49970;54.976;73.248;2022-08-16T09:40:03;3.17;;;1.20;;
63818;SDS011;49970;54.976;73.248;2022-08-16T09:43:54;3.30;;;1.50;;
63818;SDS011;49970;54.976;73.248;2022-08-16T09:48:10;6.80;;;2.08;;
63818;SDS011;49970;54.976;73.248;2022-08-16T09:52:01;7.13;;;1.63;;
63818;SDS011;49970;54.976;73.248;2022-08-16T09:55:52;7.82;;;1.67;;
63818;SDS011;49970;54.976;73.248;2022-08-16T09:59:42;11.10;;;1.40;;
63818;SDS011;49970;54.976;73.248;2022-08-16T10:03:33;4.85;;;1.67;;
63818;SDS011;49970;54.976;73.248;2022-08-16T10:07:25;12.45;;;1.80;;
63818;SDS011;49970;54.976;73.248;2022-08-16T10:11:16;1.63;;;1.50;;
63818;SDS011;49970;54.976;73.248;2022-08-16T10:15:32;9.07;;;1.33;;
63818;SDS011;49970;54.976;73.248;2022-08-16T10:20:17;2.77;;;1.73;;
63818;SDS011;49970;54.976;73.248;2022-08-16T10:24:09;8.52;;;1.60;;
63818;SDS011;49970;54.976;73.248;2022-08-16T10:28:00;7.15;;;1.65;;
63818;SDS011;49970;54.976;73.248;2022-08-16T10:31:49;6.43;;;1.85;;
63818;SDS011;49970;54.976;73.248;2022-08-16T10:35:39;8.35;;;1.80;;
63818;SDS011;49970;54.976;73.248;2022-08-16T10:43:44;1.50;;;1.40;;
63818;SDS011;49970;54.976;73.248;2022-08-16T10:47:59;22.77;;;2.17;;
63818;SDS011;49970;54.976;73.248;2022-08-16T10:56:05;3.65;;;1.65;;
63818;SDS011;49970;54.976;73.248;2022-08-16T10:59:57;5.72;;;1.48;;
63818;SDS011;49970;54.976;73.248;2022-08-16T11:03:47;7.75;;;2.00;;
63818;SDS011;49970;54.976;73.248;2022-08-16T11:07:37;5.20;;;1.83;;
63818;SDS011;49970;54.976;73.248;2022-08-16T11:11:26;11.43;;;1.60;;
63818;SDS011;49970;54.976;73.248;2022-08-16T11:15:17;9.50;;;2.28;;
63818;SDS011;49970;54.976;73.248;2022-08-16T13:37:20;6.75;;;2.17;;
63818;SDS011;49970;54.976;73.248;2022-08-16T13:39:47;5.85;;;2.50;;
63818;SDS011;49970;54.976;73.248;2022-08-16T13:42:13;22.10;;;2.75;;
63818;SDS011;49970;54.976;73.248;2022-08-16T13:46:04;25.27;;;2.95;;
63818;SDS011;49970;54.976;73.248;2022-08-16T13:48:36;11.82;;;2.22;;
63818;SDS011;49970;54.976;73.248;2022-08-16T13:51:03;12.38;;;2.25;;
63818;SDS011;49970;54.976;73.248;2022-08-16T13:53:35;25.98;;;2.75;;
63818;SDS011;49970;54.976;73.248;2022-08-16T13:56:06;11.90;;;3.05;;
63818;SDS011;49970;54.976;73.248;2022-08-16T13:58:32;25.95;;;3.25;;
63818;SDS011;49970;54.976;73.248;2022-08-16T14:00:59;16.45;;;3.30;;
63818;SDS011;49970;54.976;73.248;2022-08-16T14:03:26;20.98;;;4.20;;
63818;SDS011;49970;54.976;73.248;2022-08-16T14:05:53;10.80;;;4.05;;
63818;SDS011;49970;54.976;73.248;2022-08-16T14:08:19;17.77;;;4.03;;
63818;SDS011;49970;54.976;73.248;2022-08-16T14:10:45;12.70;;;4.07;;
63818;SDS011;49970;54.976;73.248;2022-08-16T14:13:11;20.48;;;4.45;;
63818;SDS011;49970;54.976;73.248;2022-08-16T14:15:38;25.83;;;4.00;;
63818;SDS011;49970;54.976;73.248;2022-08-16T14:18:04;12.48;;;4.35;;
63818;SDS011;49970;54.976;73.248;2022-08-16T14:20:30;17.13;;;3.97;;
63818;SDS011;49970;54.976;73.248;2022-08-16T14:22:57;11.98;;;3.40;;
63818;SDS011;49970;54.976;73.248;2022-08-16T14:25:24;15.35;;;4.72;;
63818;SDS011;49970;54.976;73.248;2022-08-16T14:27:50;14.43;;;4.40;;
63818;SDS011;49970;54.976;73.248;2022-08-16T14:30:27;11.43;;;4.15;;
63818;SDS011;49970;54.976;73.248;2022-08-16T14:34:02;14.50;;;4.50;;
63818;SDS011;49970;54.976;73.248;2022-08-16T14:37:34;19.27;;;3.70;;
63818;SDS011;49970;54.976;73.248;2022-08-16T14:40:02;6.00;;;3.10;;
63818;SDS011;49970;54.976;73.248;2022-08-16T14:42:34;6.85;;;3.38;;
63818;SDS011;49970;54.976;73.248;2022-08-16T14:45:02;12.25;;;3.72;;
63818;SDS011;49970;54.976;73.248;2022-08-16T14:47:40;14.25;;;3.45;;
63818;SDS011;49970;54.976;73.248;2022-08-16T14:50:08;7.63;;;4.75;;
63818;SDS011;49970;54.976;73.248;2022-08-16T14:52:39;10.63;;;3.95;;
63818;SDS011;49970;54.976;73.248;2022-08-16T14:55:18;10.60;;;4.00;;
63818;SDS011;49970;54.976;73.248;2022-08-16T14:57:44;15.45;;;4.38;;
63818;SDS011;49970;54.976;73.248;2022-08-16T15:00:13;16.73;;;4.13;;
63818;SDS011;49970;54.976;73.248;2022-08-16T15:02:40;23.90;;;4.10;;
63818;SDS011;49970;54.976;73.248;2022-08-16T15:05:07;5.03;;;3.05;;
63818;SDS011;49970;54.976;73.248;2022-08-16T15:07:44;4.53;;;3.05;;
63818;SDS011;49970;54.976;73.248;2022-08-16T15:10:11;4.47;;;2.92;;
63818;SDS011;49970;54.976;73.248;2022-08-16T15:12:38;8.52;;;3.05;;
63818;SDS011;49970;54.976;73.248;2022-08-16T15:15:15;6.20;;;3.40;;
63818;SDS011;49970;54.976;73.248;2022-08-16T15:17:45;10.45;;;3.72;;
63818;SDS011;49970;54.976;73.248;2022-08-16T15:20:12;10.50;;;3.67;;
63818;SDS011;49970;54.976;73.248;2022-08-16T15:22:43;15.00;;;4.30;;
63818;SDS011;49970;54.976;73.248;2022-08-16T15:25:21;9.05;;;5.07;;
63818;SDS011;49970;54.976;73.248;2022-08-16T15:29:09;9.73;;;4.85;;
63818;SDS011;49970;54.976;73.248;2022-08-16T15:31:36;8.60;;;3.92;;
63818;SDS011;49970;54.976;73.248;2022-08-16T15:35:27;6.45;;;3.80;;
63818;SDS011;49970;54.976;73.248;2022-08-16T15:37:59;7.63;;;3.38;;
63818;SDS011;49970;54.976;73.248;2022-08-16T15:40:25;11.43;;;3.08;;
63818;SDS011;49970;54.976;73.248;2022-08-16T15:42:52;8.48;;;3.10;;
63818;SDS011;49970;54.976;73.248;2022-08-16T15:45:21;11.93;;;3.53;;
63818;SDS011;49970;54.976;73.248;2022-08-16T15:49:11;15.35;;;3.00;;
63818;SDS011;49970;54.976;73.248;2022-08-16T15:51:53;8.07;;;2.88;;
63818;SDS011;49970;54.976;73.248;2022-08-16T15:54:19;13.32;;;2.65;;
63818;SDS011;49970;54.976;73.248;2022-08-16T15:56:46;5.75;;;2.15;;
63818;SDS011;49970;54.976;73.248;2022-08-16T15:59:15;14.10;;;3.38;;
63818;SDS011;49970;54.976;73.248;2022-08-16T16:01:42;16.20;;;3.33;;
63818;SDS011;49970;54.976;73.248;2022-08-16T16:04:14;19.90;;;3.38;;
63818;SDS011;49970;54.976;73.248;2022-08-16T16:06:40;14.35;;;3.17;;
63818;SDS011;49970;54.976;73.248;2022-08-16T16:09:06;17.30;;;2.80;;
63818;SDS011;49970;54.976;73.248;2022-08-16T16:12:52;10.85;;;2.95;;
63818;SDS011;49970;54.976;73.248;2022-08-16T16:15:21;16.48;;;3.05;;
63818;SDS011;49970;54.976;73.248;2022-08-16T16:19:18;11.23;;;2.67;;
63818;SDS011;49970;54.976;73.248;2022-08-16T16:23:09;9.00;;;2.80;;
63818;SDS011;49970;54.976;73.248;2022-08-16T16:26:59;9.65;;;2.72;;
63818;SDS011;49970;54.976;73.248;2022-08-16T16:30:50;6.43;;;4.32;;
63818;SDS011;49970;54.976;73.248;2022-08-16T16:34:39;9.57;;;3.75;;
63818;SDS011;49970;54.976;73.248;2022-08-16T16:39:25;21.00;;;4.03;;
63818;SDS011;49970;54.976;73.248;2022-08-16T16:43:15;4.85;;;2.78;;
63818;SDS011;49970;54.976;73.248;2022-08-16T16:46:03;13.43;;;2.85;;
63818;SDS011;49970;54.976;73.248;2022-08-16T16:49:54;6.65;;;2.83;;
63818;SDS011;49970;54.976;73.248;2022-08-16T16:53:46;7.65;;;2.70;;
63818;SDS011;49970;54.976;73.248;2022-08-16T16:57:36;10.27;;;3.00;;
63818;SDS011;49970;54.976;73.248;2022-08-16T17:01:07;36.42;;;4.03;;
63818;SDS011;49970;54.976;73.248;2022-08-16T17:03:34;40.65;;;4.07;;
63818;SDS011;49970;54.976;73.248;2022-08-16T17:06:00;33.17;;;3.75;;
63818;SDS011;49970;54.976;73.248;2022-08-16T17:08:27;22.45;;;1.70;;
63818;SDS011;49970;54.976;73.248;2022-08-16T17:11:04;4.90;;;1.20;;
63818;SDS011;49970;54.976;73.248;2022-08-16T17:13:30;7.93;;;1.42;;
63818;SDS011;49970;54.976;73.248;2022-08-16T17:15:57;20.25;;;1.30;;
63818;SDS011;49970;54.976;73.248;2022-08-16T17:18:23;5.80;;;1.00;;
63818;SDS011;49970;54.976;73.248;2022-08-16T17:20:49;9.23;;;1.40;;
63818;SDS011;49970;54.976;73.248;2022-08-16T17:23:16;14.10;;;1.05;;
63818;SDS011;49970;54.976;73.248;2022-08-16T17:25:43;5.72;;;1.55;;
63818;SDS011;49970;54.976;73.248;2022-08-16T17:28:09;7.85;;;1.90;;
63818;SDS011;49970;54.976;73.248;2022-08-16T17:30:36;31.00;;;5.05;;
63818;SDS011;49970;54.976;73.248;2022-08-16T17:33:03;61.78;;;8.23;;
63818;SDS011;49970;54.976;73.248;2022-08-16T17:35:38;44.80;;;8.75;;
63818;SDS011;49970;54.976;73.248;2022-08-16T17:38:10;41.67;;;7.38;;
63818;SDS011;49970;54.976;73.248;2022-08-16T17:40:42;37.95;;;7.63;;
63818;SDS011;49970;54.976;73.248;2022-08-16T17:43:10;45.55;;;7.63;;
63818;SDS011;49970;54.976;73.248;2022-08-16T17:45:44;29.77;;;5.05;;
63818;SDS011;49970;54.976;73.248;2022-08-16T17:48:11;6.13;;;2.53;;
63818;SDS011;49970;54.976;73.248;2022-08-16T17:50:38;8.85;;;2.90;;
63818;SDS011;49970;54.976;73.248;2022-08-16T17:53:06;4.75;;;2.10;;
63818;SDS011;49970;54.976;73.248;2022-08-16T17:55:34;3.05;;;1.63;;
63818;SDS011;49970;54.976;73.248;2022-08-16T17:58:09;1.38;;;1.27;;
63818;SDS011;49970;54.976;73.248;2022-08-16T18:00:37;2.13;;;1.48;;
63818;SDS011;49970;54.976;73.248;2022-08-16T18:03:11;8.52;;;2.13;;
63818;SDS011;49970;54.976;73.248;2022-08-16T18:05:40;3.72;;;1.52;;
63818;SDS011;49970;54.976;73.248;2022-08-16T18:08:09;3.03;;;1.40;;
63818;SDS011;49970;54.976;73.248;2022-08-16T18:10:37;6.68;;;1.40;;
63818;SDS011;49970;54.976;73.248;2022-08-16T18:13:03;11.98;;;1.58;;
63818;SDS011;49970;54.976;73.248;2022-08-16T18:15:39;4.90;;;1.27;;
63818;SDS011;49970;54.976;73.248;2022-08-16T18:18:06;5.68;;;1.48;;
63818;SDS011;49970;54.976;73.248;2022-08-16T18:20:34;7.88;;;1.63;;
63818;SDS011;49970;54.976;73.248;2022-08-16T18:23:23;4.35;;;1.55;;
63818;SDS011;49970;54.976;73.248;2022-08-16T18:25:52;11.10;;;1.48;;
63818;SDS011;49970;54.976;73.248;2022-08-16T18:28:21;6.47;;;1.60;;
63818;SDS011;49970;54.976;73.248;2022-08-16T18:30:49;3.75;;;1.67;;
63818;SDS011;49970;54.976;73.248;2022-08-16T18:33:16;2.92;;;1.30;;
63818;SDS011;49970;54.976;73.248;2022-08-16T18:35:43;9.38;;;1.60;;
63818;SDS011;49970;54.976;73.248;2022-08-16T18:38:10;2.13;;;1.60;;
63818;SDS011;49970;54.976;73.248;2022-08-16T18:40:37;4.55;;;1.65;;
63818;SDS011;49970;54.976;73.248;2022-08-16T18:43:05;2.72;;;1.52;;
63818;SDS011;49970;54.976;73.248;2022-08-16T18:45:36;7.25;;;1.80;;
63818;SDS011;49970;54.976;73.248;2022-08-16T18:48:15;2.75;;;1.55;;
63818;SDS011;49970;54.976;73.248;2022-08-16T18:50:43;13.65;;;1.50;;
63818;SDS011;49970;54.976;73.248;2022-08-16T18:53:10;5.18;;;1.35;;